CheckWX is a tool to help pilots better visualize weather data.  It is not intended as a substitute for an official pre-flight weather briefing.

07:54:26 UTC

KLMT TAF
Crater Lake-Klamath Regional Airport
Klamath Falls, Oregon, USA
KLMT 210547Z 2106/2206 17012G20KT P6SM OVC080 FM211000 17018G28KT P6SM OVC050 FM211300 18020G30KT 3SM -RASN BKN015 OVC030 FM211800 20014G22KT 4SM -SHRASN SCT020 OVC040 FM212100 25012KT P6SM -SHRASN SCT020 OVC040 FM220100 22005KT P6SM BKN050

Jan-21@
06:00 UTC

Jan-21 @ 06:00 UTC

Jan-21@
10:00 UTC

Jan-21 @ 10:00 UTC

KLMT 210547Z 2106/2206 17012G20KT P6SM OVC080
Wind
  • 170° at 12 KTS
  • {Gusting to 20 KTS
Cloud Levels
  • Overcast at 8,000' AGL

Jan-21@
10:00 UTC

Jan-21 @ 10:00 UTC

Jan-21@
13:00 UTC

Jan-21 @ 13:00 UTC

FM211000 17018G28KT P6SM OVC050

From

From Standard forecast or significant change

Wind
  • 170° at 18 KTS
  • {Gusting to 28 KTS
Cloud Levels
  • Overcast at 5,000' AGL

Jan-21@
13:00 UTC

Jan-21 @ 13:00 UTC

Jan-21@
18:00 UTC

Jan-21 @ 18:00 UTC

FM211300 18020G30KT 3SM -RASN BKN015 OVC030

From

From Standard forecast or significant change

Wind
  • 180° at 20 KTS
  • {Gusting to 30 KTS
Conditions
Light Rain, Light Snow
Cloud Levels
  • Broken at 1,500' AGL
  • Overcast at 3,000' AGL

Jan-21@
18:00 UTC

Jan-21 @ 18:00 UTC

Jan-21@
21:00 UTC

Jan-21 @ 21:00 UTC

FM211800 20014G22KT 4SM -SHRASN SCT020 OVC040

From

From Standard forecast or significant change

Wind
  • 200° at 14 KTS
  • {Gusting to 22 KTS
Conditions
Light Rain, Light Snow
Cloud Levels
  • Scattered at 2,000' AGL
  • Overcast at 4,000' AGL

Jan-21@
21:00 UTC

Jan-21 @ 21:00 UTC

Jan-22@
01:00 UTC

Jan-22 @ 01:00 UTC

FM212100 25012KT P6SM -SHRASN SCT020 OVC040

From

From Standard forecast or significant change

Wind
  • 250° at 12 KTS
Conditions
Light Rain, Light Snow
Cloud Levels
  • Scattered at 2,000' AGL
  • Overcast at 4,000' AGL

Jan-22@
01:00 UTC

Jan-22 @ 01:00 UTC

Jan-22@
06:00 UTC

Jan-22 @ 06:00 UTC

FM220100 22005KT P6SM BKN050

From

From Standard forecast or significant change

Wind
  • 220° at 5 KTS
Cloud Levels
  • Broken at 5,000' AGL